Altus Municipal, OK

12:39 CDT le 22 août 2014 (GMT -0500)
Altus Air Force Base | Change Station
CLOSE
Current Station
Aéroport
Location: Altus AFB,
Altitude: 1378 ft
Stations météo à proximité

Alt. 1378 ft 34.67 °N, 99.27 °W | Updated 41 minutes ago

Clear
Ciel dégagé
95 ° F
Paraît 98 ° F
N
21
Vent Variable Vent de Sud
Gusts 26 mph

Aujourd'hui
Haut(e) -- | Bas -- ° F
--% Risque de précip.
Hier
Haut(e) -- | Bas -- ° F
Precip. -- pouce
7:03 AM 8:16 PM
Lune descendante, 7% visible
Pression 29.94 pouce
Visibilité 10.0 Miles terrestres
Nuages Ciel dégagé
indice de chaleur 98 ° F
Point de rosée 65 ° F
Humidité 37%
Précipitations 0.00 pouce
Profondeur de la couche neigeuse Non disponible.
UV 9 sur 12
Pollen 9.40 sur 12
Qualité de l'air Non disponible.
Flu Activity Non disponible.
METAR KLTS 221658Z 19018G23KT 10SM CLR 35/18 A2999 RMK AO2A PK WND 22028/33 SLP136 T03520183 $

More Conditions Fewer Conditions

Pression 29.94 pouce
Visibilité 10.0 Miles terrestres
Nuages Ciel dégagé
indice de chaleur 98 ° F
Point de rosée 65 ° F
Humidité 37%
Précipitations 0.00 pouce
Profondeur de la couche neigeuse Non disponible.
UV 9 sur 12
Pollen 9.40 sur 12
Qualité de l'air Non disponible.
Flu Activity Non disponible.
METAR KLTS 221658Z 19018G23KT 10SM CLR 35/18 A2999 RMK AO2A PK WND 22028/33 SLP136 T03520183 $

More Conditions Fewer Conditions

10-Day Weather Forecast

Almanac

Astronomie

Aug. 22, 2014 Lever Coucher
Temps réel 07:03 CDT 20:16 CDT
Crépuscule civil 06:36 CDT 20:42 CDT
Crépuscule nautique 06:05 CDT 21:14 CDT
Crépuscule astronomique 05:32 CDT 21:46 CDT
Lune 04:30 CDT 18:24 CDT
Durée de lumière visible 14h 06m
Longueur du jour
13h 13m
Tomorrow will be 2m 0s shorter.
Lune descendante, 7% of the Moon is Illuminated
Aujourd'hui
Lune descendante
août 25
Nouveau
Sep 2
Premier quartier
Sep 8
Pleine lune
Sep 15
Dernier quartier

Extrêmes aujourd'hui

State Highs State Lows

Community

WunderPhotos

Upload Photos

1,746,205 Photos téléchargées !

WunderBlogs® & News

Nearby

Épaisseur de neige

Station Depth Altitude
Pas de nouvelles chutes de neige

Activité sismique

Ville Distance Mag. Time & Date
No recent earthquake activity has been reported nearby.
Minimum magnitude displayed is 2.5.

Températures des eaux côtières

Lieu Température
Aucun rapport de station

Stations météo à proximité